sensor_id;sensor_type;location;lat;lon;timestamp;P1;durP1;ratioP1;P2;durP2;ratioP2
40959;SDS011;27842;52.272;8.052;2023-09-07T00:00:29;8.60;;;2.50;;
40959;SDS011;27842;52.272;8.052;2023-09-07T00:02:55;8.82;;;2.72;;
40959;SDS011;27842;52.272;8.052;2023-09-07T00:05:21;7.75;;;2.72;;
40959;SDS011;27842;52.272;8.052;2023-09-07T00:07:46;7.18;;;2.53;;
40959;SDS011;27842;52.272;8.052;2023-09-07T00:10:12;7.13;;;2.53;;
40959;SDS011;27842;52.272;8.052;2023-09-07T00:12:38;8.07;;;2.67;;
40959;SDS011;27842;52.272;8.052;2023-09-07T00:15:04;5.60;;;2.30;;
40959;SDS011;27842;52.272;8.052;2023-09-07T00:17:33;8.90;;;2.50;;
40959;SDS011;27842;52.272;8.052;2023-09-07T00:19:59;9.15;;;2.70;;
40959;SDS011;27842;52.272;8.052;2023-09-07T00:22:25;7.65;;;2.60;;
40959;SDS011;27842;52.272;8.052;2023-09-07T00:24:53;11.52;;;2.67;;
40959;SDS011;27842;52.272;8.052;2023-09-07T00:27:18;8.77;;;2.80;;
40959;SDS011;27842;52.272;8.052;2023-09-07T00:29:44;7.18;;;2.53;;
40959;SDS011;27842;52.272;8.052;2023-09-07T00:32:10;5.57;;;2.38;;
40959;SDS011;27842;52.272;8.052;2023-09-07T00:34:35;8.95;;;2.63;;
40959;SDS011;27842;52.272;8.052;2023-09-07T00:37:01;7.97;;;2.88;;
40959;SDS011;27842;52.272;8.052;2023-09-07T00:39:26;8.77;;;2.85;;
40959;SDS011;27842;52.272;8.052;2023-09-07T00:41:52;8.55;;;2.65;;
40959;SDS011;27842;52.272;8.052;2023-09-07T00:44:17;8.15;;;2.55;;
40959;SDS011;27842;52.272;8.052;2023-09-07T00:46:43;8.45;;;2.72;;
40959;SDS011;27842;52.272;8.052;2023-09-07T00:49:09;8.77;;;2.85;;
40959;SDS011;27842;52.272;8.052;2023-09-07T00:51:36;6.20;;;2.67;;
40959;SDS011;27842;52.272;8.052;2023-09-07T00:54:02;10.43;;;3.05;;
40959;SDS011;27842;52.272;8.052;2023-09-07T00:56:28;6.97;;;2.75;;
40959;SDS011;27842;52.272;8.052;2023-09-07T00:58:54;13.40;;;3.33;;
40959;SDS011;27842;52.272;8.052;2023-09-07T01:01:21;10.82;;;2.78;;
40959;SDS011;27842;52.272;8.052;2023-09-07T01:03:48;12.10;;;3.30;;
40959;SDS011;27842;52.272;8.052;2023-09-07T01:06:32;10.40;;;3.03;;
40959;SDS011;27842;52.272;8.052;2023-09-07T01:09:23;6.88;;;2.78;;
40959;SDS011;27842;52.272;8.052;2023-09-07T01:11:51;10.43;;;3.15;;
40959;SDS011;27842;52.272;8.052;2023-09-07T01:14:17;10.15;;;3.03;;
40959;SDS011;27842;52.272;8.052;2023-09-07T01:16:43;10.90;;;3.25;;
40959;SDS011;27842;52.272;8.052;2023-09-07T01:19:09;12.05;;;3.05;;
40959;SDS011;27842;52.272;8.052;2023-09-07T01:21:38;10.10;;;3.22;;
40959;SDS011;27842;52.272;8.052;2023-09-07T01:24:06;8.40;;;3.40;;
40959;SDS011;27842;52.272;8.052;2023-09-07T01:26:36;9.43;;;3.45;;
40959;SDS011;27842;52.272;8.052;2023-09-07T01:29:05;14.05;;;3.28;;
40959;SDS011;27842;52.272;8.052;2023-09-07T01:31:35;9.95;;;3.42;;
40959;SDS011;27842;52.272;8.052;2023-09-07T01:34:02;8.57;;;3.20;;
40959;SDS011;27842;52.272;8.052;2023-09-07T01:36:29;8.65;;;3.50;;
40959;SDS011;27842;52.272;8.052;2023-09-07T01:38:55;10.00;;;3.35;;
40959;SDS011;27842;52.272;8.052;2023-09-07T01:41:20;6.85;;;2.85;;
40959;SDS011;27842;52.272;8.052;2023-09-07T01:43:46;10.25;;;3.10;;
40959;SDS011;27842;52.272;8.052;2023-09-07T01:46:11;8.98;;;3.15;;
40959;SDS011;27842;52.272;8.052;2023-09-07T01:48:37;9.00;;;3.13;;
40959;SDS011;27842;52.272;8.052;2023-09-07T01:51:03;9.63;;;4.38;;
40959;SDS011;27842;52.272;8.052;2023-09-07T01:53:28;7.60;;;3.10;;
40959;SDS011;27842;52.272;8.052;2023-09-07T01:55:54;7.55;;;3.28;;
40959;SDS011;27842;52.272;8.052;2023-09-07T01:58:20;8.27;;;3.17;;
40959;SDS011;27842;52.272;8.052;2023-09-07T02:00:46;11.13;;;3.22;;
40959;SDS011;27842;52.272;8.052;2023-09-07T02:03:12;10.15;;;4.18;;
40959;SDS011;27842;52.272;8.052;2023-09-07T02:05:38;9.48;;;3.47;;
40959;SDS011;27842;52.272;8.052;2023-09-07T02:08:04;7.97;;;3.10;;
40959;SDS011;27842;52.272;8.052;2023-09-07T02:10:30;13.90;;;3.80;;
40959;SDS011;27842;52.272;8.052;2023-09-07T02:12:55;9.00;;;3.58;;
40959;SDS011;27842;52.272;8.052;2023-09-07T02:15:23;11.30;;;3.60;;
40959;SDS011;27842;52.272;8.052;2023-09-07T02:17:49;10.35;;;3.65;;
40959;SDS011;27842;52.272;8.052;2023-09-07T02:20:14;7.85;;;3.40;;
40959;SDS011;27842;52.272;8.052;2023-09-07T02:22:40;9.68;;;3.72;;
40959;SDS011;27842;52.272;8.052;2023-09-07T02:25:06;8.88;;;3.50;;
40959;SDS011;27842;52.272;8.052;2023-09-07T02:27:32;11.40;;;4.13;;
40959;SDS011;27842;52.272;8.052;2023-09-07T02:29:59;11.73;;;3.60;;
40959;SDS011;27842;52.272;8.052;2023-09-07T02:32:24;11.77;;;3.33;;
40959;SDS011;27842;52.272;8.052;2023-09-07T02:34:50;10.23;;;3.50;;
40959;SDS011;27842;52.272;8.052;2023-09-07T02:37:15;7.30;;;3.28;;
40959;SDS011;27842;52.272;8.052;2023-09-07T02:39:41;11.50;;;3.58;;
40959;SDS011;27842;52.272;8.052;2023-09-07T02:42:07;10.82;;;3.55;;
40959;SDS011;27842;52.272;8.052;2023-09-07T02:44:33;10.32;;;3.65;;
40959;SDS011;27842;52.272;8.052;2023-09-07T02:46:58;9.93;;;3.97;;
40959;SDS011;27842;52.272;8.052;2023-09-07T02:49:24;10.23;;;3.78;;
40959;SDS011;27842;52.272;8.052;2023-09-07T02:51:49;10.70;;;3.50;;
40959;SDS011;27842;52.272;8.052;2023-09-07T02:54:15;10.55;;;3.50;;
40959;SDS011;27842;52.272;8.052;2023-09-07T02:56:41;9.23;;;3.72;;
40959;SDS011;27842;52.272;8.052;2023-09-07T02:59:06;8.40;;;3.60;;
40959;SDS011;27842;52.272;8.052;2023-09-07T03:01:32;9.20;;;3.78;;
40959;SDS011;27842;52.272;8.052;2023-09-07T03:03:57;10.15;;;3.90;;
40959;SDS011;27842;52.272;8.052;2023-09-07T03:06:23;9.38;;;3.60;;
40959;SDS011;27842;52.272;8.052;2023-09-07T03:08:48;11.63;;;3.70;;
40959;SDS011;27842;52.272;8.052;2023-09-07T03:11:14;10.07;;;3.83;;
40959;SDS011;27842;52.272;8.052;2023-09-07T03:13:40;9.10;;;3.45;;
40959;SDS011;27842;52.272;8.052;2023-09-07T03:16:07;10.02;;;3.85;;
40959;SDS011;27842;52.272;8.052;2023-09-07T03:18:32;12.07;;;3.80;;
40959;SDS011;27842;52.272;8.052;2023-09-07T03:20:59;9.80;;;3.90;;
40959;SDS011;27842;52.272;8.052;2023-09-07T03:23:26;11.98;;;3.72;;
40959;SDS011;27842;52.272;8.052;2023-09-07T03:25:52;11.85;;;4.00;;
40959;SDS011;27842;52.272;8.052;2023-09-07T03:28:18;11.80;;;3.90;;
40959;SDS011;27842;52.272;8.052;2023-09-07T03:30:44;12.40;;;4.20;;
40959;SDS011;27842;52.272;8.052;2023-09-07T03:33:09;10.02;;;3.70;;
40959;SDS011;27842;52.272;8.052;2023-09-07T03:35:35;11.82;;;3.75;;
40959;SDS011;27842;52.272;8.052;2023-09-07T03:38:00;12.45;;;4.40;;
40959;SDS011;27842;52.272;8.052;2023-09-07T03:40:26;8.60;;;3.72;;
40959;SDS011;27842;52.272;8.052;2023-09-07T03:42:52;10.57;;;4.05;;
40959;SDS011;27842;52.272;8.052;2023-09-07T03:45:17;9.30;;;4.15;;
40959;SDS011;27842;52.272;8.052;2023-09-07T03:47:43;10.25;;;3.67;;
40959;SDS011;27842;52.272;8.052;2023-09-07T03:50:09;10.50;;;3.90;;
40959;SDS011;27842;52.272;8.052;2023-09-07T03:52:34;12.70;;;4.40;;
40959;SDS011;27842;52.272;8.052;2023-09-07T03:55:00;13.00;;;4.07;;
40959;SDS011;27842;52.272;8.052;2023-09-07T03:57:26;12.02;;;4.30;;
40959;SDS011;27842;52.272;8.052;2023-09-07T03:59:52;11.07;;;3.88;;
40959;SDS011;27842;52.272;8.052;2023-09-07T04:02:20;10.63;;;3.97;;
40959;SDS011;27842;52.272;8.052;2023-09-07T04:04:50;9.55;;;3.72;;
40959;SDS011;27842;52.272;8.052;2023-09-07T04:07:16;8.80;;;3.88;;
40959;SDS011;27842;52.272;8.052;2023-09-07T04:09:42;11.18;;;4.13;;
40959;SDS011;27842;52.272;8.052;2023-09-07T04:12:08;13.60;;;4.53;;
40959;SDS011;27842;52.272;8.052;2023-09-07T04:14:34;12.48;;;4.20;;
40959;SDS011;27842;52.272;8.052;2023-09-07T04:17:00;11.23;;;3.80;;
40959;SDS011;27842;52.272;8.052;2023-09-07T04:19:26;9.93;;;3.90;;
40959;SDS011;27842;52.272;8.052;2023-09-07T04:21:52;14.88;;;4.30;;
40959;SDS011;27842;52.272;8.052;2023-09-07T04:24:17;11.00;;;3.90;;
40959;SDS011;27842;52.272;8.052;2023-09-07T04:26:43;14.15;;;4.78;;
40959;SDS011;27842;52.272;8.052;2023-09-07T04:29:09;13.30;;;4.80;;
40959;SDS011;27842;52.272;8.052;2023-09-07T04:31:35;11.73;;;4.90;;
40959;SDS011;27842;52.272;8.052;2023-09-07T04:34:01;11.00;;;4.85;;
40959;SDS011;27842;52.272;8.052;2023-09-07T04:36:27;14.90;;;5.25;;
40959;SDS011;27842;52.272;8.052;2023-09-07T04:38:53;12.77;;;4.60;;
40959;SDS011;27842;52.272;8.052;2023-09-07T04:41:19;10.98;;;4.45;;
40959;SDS011;27842;52.272;8.052;2023-09-07T04:43:45;12.15;;;4.88;;
40959;SDS011;27842;52.272;8.052;2023-09-07T04:46:11;12.32;;;4.80;;
40959;SDS011;27842;52.272;8.052;2023-09-07T04:48:37;12.18;;;4.78;;
40959;SDS011;27842;52.272;8.052;2023-09-07T04:51:04;11.48;;;4.43;;
40959;SDS011;27842;52.272;8.052;2023-09-07T04:53:31;11.68;;;4.78;;
40959;SDS011;27842;52.272;8.052;2023-09-07T04:55:58;13.25;;;4.72;;
40959;SDS011;27842;52.272;8.052;2023-09-07T04:58:24;10.55;;;4.40;;
40959;SDS011;27842;52.272;8.052;2023-09-07T05:00:50;12.90;;;4.70;;
40959;SDS011;27842;52.272;8.052;2023-09-07T05:03:16;9.75;;;4.47;;
40959;SDS011;27842;52.272;8.052;2023-09-07T05:05:41;12.05;;;4.70;;
40959;SDS011;27842;52.272;8.052;2023-09-07T05:08:08;15.60;;;5.00;;
40959;SDS011;27842;52.272;8.052;2023-09-07T05:10:34;14.70;;;5.10;;
40959;SDS011;27842;52.272;8.052;2023-09-07T05:13:01;15.35;;;5.10;;
40959;SDS011;27842;52.272;8.052;2023-09-07T05:15:26;14.00;;;5.10;;
40959;SDS011;27842;52.272;8.052;2023-09-07T05:17:52;12.32;;;5.30;;
40959;SDS011;27842;52.272;8.052;2023-09-07T05:20:21;16.17;;;4.78;;
40959;SDS011;27842;52.272;8.052;2023-09-07T05:22:47;15.38;;;4.72;;
40959;SDS011;27842;52.272;8.052;2023-09-07T05:25:12;18.55;;;5.20;;
40959;SDS011;27842;52.272;8.052;2023-09-07T05:27:38;14.70;;;4.93;;
40959;SDS011;27842;52.272;8.052;2023-09-07T05:30:04;18.30;;;5.05;;
40959;SDS011;27842;52.272;8.052;2023-09-07T05:32:31;13.65;;;4.97;;
40959;SDS011;27842;52.272;8.052;2023-09-07T05:34:57;15.80;;;5.63;;
40959;SDS011;27842;52.272;8.052;2023-09-07T05:37:22;14.13;;;4.95;;
40959;SDS011;27842;52.272;8.052;2023-09-07T05:39:48;11.35;;;4.95;;
40959;SDS011;27842;52.272;8.052;2023-09-07T05:42:14;12.35;;;5.07;;
40959;SDS011;27842;52.272;8.052;2023-09-07T05:44:40;12.80;;;5.10;;
40959;SDS011;27842;52.272;8.052;2023-09-07T05:47:06;18.35;;;5.45;;
40959;SDS011;27842;52.272;8.052;2023-09-07T05:49:32;17.02;;;5.53;;
40959;SDS011;27842;52.272;8.052;2023-09-07T05:51:58;16.95;;;5.00;;
40959;SDS011;27842;52.272;8.052;2023-09-07T05:54:23;13.18;;;4.63;;
40959;SDS011;27842;52.272;8.052;2023-09-07T05:56:49;12.63;;;4.88;;
40959;SDS011;27842;52.272;8.052;2023-09-07T05:59:15;16.88;;;5.32;;
40959;SDS011;27842;52.272;8.052;2023-09-07T06:01:44;24.73;;;6.78;;
40959;SDS011;27842;52.272;8.052;2023-09-07T06:04:10;13.85;;;4.65;;
40959;SDS011;27842;52.272;8.052;2023-09-07T06:06:36;14.45;;;5.45;;
40959;SDS011;27842;52.272;8.052;2023-09-07T06:09:01;14.07;;;4.50;;
40959;SDS011;27842;52.272;8.052;2023-09-07T06:11:28;13.43;;;4.97;;
40959;SDS011;27842;52.272;8.052;2023-09-07T06:13:55;10.07;;;4.53;;
40959;SDS011;27842;52.272;8.052;2023-09-07T06:16:21;14.45;;;5.00;;
40959;SDS011;27842;52.272;8.052;2023-09-07T06:18:50;13.63;;;4.55;;
40959;SDS011;27842;52.272;8.052;2023-09-07T06:21:16;18.48;;;5.57;;
40959;SDS011;27842;52.272;8.052;2023-09-07T06:23:42;14.32;;;4.05;;
40959;SDS011;27842;52.272;8.052;2023-09-07T06:26:08;13.95;;;4.70;;
40959;SDS011;27842;52.272;8.052;2023-09-07T06:28:33;13.75;;;4.75;;
40959;SDS011;27842;52.272;8.052;2023-09-07T06:30:59;14.32;;;4.43;;
40959;SDS011;27842;52.272;8.052;2023-09-07T06:33:25;13.02;;;4.57;;
40959;SDS011;27842;52.272;8.052;2023-09-07T06:35:50;11.32;;;4.32;;
40959;SDS011;27842;52.272;8.052;2023-09-07T06:38:16;12.45;;;4.30;;
40959;SDS011;27842;52.272;8.052;2023-09-07T06:40:46;17.48;;;4.70;;
40959;SDS011;27842;52.272;8.052;2023-09-07T06:43:13;13.23;;;4.68;;
40959;SDS011;27842;52.272;8.052;2023-09-07T06:45:38;20.40;;;4.43;;
40959;SDS011;27842;52.272;8.052;2023-09-07T06:48:04;13.93;;;4.60;;
40959;SDS011;27842;52.272;8.052;2023-09-07T06:50:30;12.02;;;3.72;;
40959;SDS011;27842;52.272;8.052;2023-09-07T06:52:55;15.48;;;5.35;;
40959;SDS011;27842;52.272;8.052;2023-09-07T06:55:21;14.30;;;4.10;;
40959;SDS011;27842;52.272;8.052;2023-09-07T06:57:46;14.65;;;4.38;;
40959;SDS011;27842;52.272;8.052;2023-09-07T07:00:12;10.68;;;4.47;;
40959;SDS011;27842;52.272;8.052;2023-09-07T07:02:38;13.93;;;4.50;;
40959;SDS011;27842;52.272;8.052;2023-09-07T07:05:04;12.57;;;4.70;;
40959;SDS011;27842;52.272;8.052;2023-09-07T07:07:30;11.55;;;4.20;;
40959;SDS011;27842;52.272;8.052;2023-09-07T07:09:56;11.93;;;4.28;;
40959;SDS011;27842;52.272;8.052;2023-09-07T07:12:21;13.38;;;4.38;;
40959;SDS011;27842;52.272;8.052;2023-09-07T07:14:48;12.25;;;4.20;;
40959;SDS011;27842;52.272;8.052;2023-09-07T07:17:14;12.80;;;3.97;;
40959;SDS011;27842;52.272;8.052;2023-09-07T07:19:39;8.52;;;3.72;;
40959;SDS011;27842;52.272;8.052;2023-09-07T07:22:06;12.10;;;4.13;;
40959;SDS011;27842;52.272;8.052;2023-09-07T07:24:34;12.63;;;4.40;;
40959;SDS011;27842;52.272;8.052;2023-09-07T07:26:59;10.93;;;3.95;;
40959;SDS011;27842;52.272;8.052;2023-09-07T07:29:25;9.75;;;3.80;;
40959;SDS011;27842;52.272;8.052;2023-09-07T07:31:51;13.65;;;4.20;;
40959;SDS011;27842;52.272;8.052;2023-09-07T07:34:17;15.40;;;4.50;;
40959;SDS011;27842;52.272;8.052;2023-09-07T07:36:42;13.90;;;4.47;;
40959;SDS011;27842;52.272;8.052;2023-09-07T07:39:08;13.45;;;4.07;;
40959;SDS011;27842;52.272;8.052;2023-09-07T07:41:34;12.45;;;3.90;;
40959;SDS011;27842;52.272;8.052;2023-09-07T07:44:00;11.55;;;4.30;;
40959;SDS011;27842;52.272;8.052;2023-09-07T07:46:26;10.30;;;4.07;;
40959;SDS011;27842;52.272;8.052;2023-09-07T07:48:52;15.93;;;4.10;;
40959;SDS011;27842;52.272;8.052;2023-09-07T07:51:17;15.32;;;4.03;;
40959;SDS011;27842;52.272;8.052;2023-09-07T07:53:46;20.77;;;4.57;;
40959;SDS011;27842;52.272;8.052;2023-09-07T07:56:15;17.55;;;4.60;;
40959;SDS011;27842;52.272;8.052;2023-09-07T07:58:47;12.43;;;4.15;;
40959;SDS011;27842;52.272;8.052;2023-09-07T08:02:59;15.27;;;4.47;;
40959;SDS011;27842;52.272;8.052;2023-09-07T08:05:25;19.70;;;4.82;;
40959;SDS011;27842;52.272;8.052;2023-09-07T08:07:50;16.35;;;4.53;;
40959;SDS011;27842;52.272;8.052;2023-09-07T08:10:18;19.83;;;4.15;;
40959;SDS011;27842;52.272;8.052;2023-09-07T08:12:44;14.70;;;4.35;;
40959;SDS011;27842;52.272;8.052;2023-09-07T08:15:10;16.27;;;4.40;;
40959;SDS011;27842;52.272;8.052;2023-09-07T08:17:35;15.60;;;4.68;;
40959;SDS011;27842;52.272;8.052;2023-09-07T08:20:01;18.42;;;4.07;;
40959;SDS011;27842;52.272;8.052;2023-09-07T08:22:28;13.95;;;4.50;;
40959;SDS011;27842;52.272;8.052;2023-09-07T08:24:54;12.70;;;4.15;;
40959;SDS011;27842;52.272;8.052;2023-09-07T08:27:20;14.05;;;4.20;;
40959;SDS011;27842;52.272;8.052;2023-09-07T08:29:46;18.08;;;5.07;;
40959;SDS011;27842;52.272;8.052;2023-09-07T08:32:13;16.20;;;4.30;;
40959;SDS011;27842;52.272;8.052;2023-09-07T08:34:39;25.40;;;4.80;;
40959;SDS011;27842;52.272;8.052;2023-09-07T08:37:06;14.13;;;4.13;;
40959;SDS011;27842;52.272;8.052;2023-09-07T08:39:35;13.50;;;4.18;;
40959;SDS011;27842;52.272;8.052;2023-09-07T08:42:07;22.40;;;4.60;;
40959;SDS011;27842;52.272;8.052;2023-09-07T08:44:33;14.65;;;4.22;;
40959;SDS011;27842;52.272;8.052;2023-09-07T08:47:02;18.40;;;4.47;;
40959;SDS011;27842;52.272;8.052;2023-09-07T08:49:29;14.63;;;4.20;;
40959;SDS011;27842;52.272;8.052;2023-09-07T08:51:58;16.38;;;4.53;;
40959;SDS011;27842;52.272;8.052;2023-09-07T08:54:25;16.08;;;4.80;;
40959;SDS011;27842;52.272;8.052;2023-09-07T08:56:51;14.25;;;4.32;;
40959;SDS011;27842;52.272;8.052;2023-09-07T08:59:17;13.82;;;4.05;;
40959;SDS011;27842;52.272;8.052;2023-09-07T09:01:43;12.70;;;4.43;;
40959;SDS011;27842;52.272;8.052;2023-09-07T09:04:08;17.33;;;5.00;;
40959;SDS011;27842;52.272;8.052;2023-09-07T09:06:34;15.80;;;4.40;;
40959;SDS011;27842;52.272;8.052;2023-09-07T09:09:00;8.90;;;3.88;;
40959;SDS011;27842;52.272;8.052;2023-09-07T09:11:26;14.30;;;4.15;;
40959;SDS011;27842;52.272;8.052;2023-09-07T09:13:53;21.40;;;4.65;;
40959;SDS011;27842;52.272;8.052;2023-09-07T09:16:19;12.95;;;4.30;;
40959;SDS011;27842;52.272;8.052;2023-09-07T09:18:52;15.63;;;4.18;;
40959;SDS011;27842;52.272;8.052;2023-09-07T09:21:19;12.18;;;4.18;;
40959;SDS011;27842;52.272;8.052;2023-09-07T09:23:49;16.75;;;4.32;;
40959;SDS011;27842;52.272;8.052;2023-09-07T09:26:17;17.23;;;4.30;;
40959;SDS011;27842;52.272;8.052;2023-09-07T09:28:43;12.02;;;4.50;;
40959;SDS011;27842;52.272;8.052;2023-09-07T09:31:12;12.18;;;3.53;;
40959;SDS011;27842;52.272;8.052;2023-09-07T09:33:39;16.05;;;4.40;;
40959;SDS011;27842;52.272;8.052;2023-09-07T09:36:06;14.18;;;4.30;;
40959;SDS011;27842;52.272;8.052;2023-09-07T09:38:32;21.10;;;4.35;;
40959;SDS011;27842;52.272;8.052;2023-09-07T09:40:59;13.00;;;3.90;;
40959;SDS011;27842;52.272;8.052;2023-09-07T09:43:25;22.27;;;4.43;;
40959;SDS011;27842;52.272;8.052;2023-09-07T09:45:51;14.65;;;4.35;;
40959;SDS011;27842;52.272;8.052;2023-09-07T09:48:20;12.20;;;3.92;;
40959;SDS011;27842;52.272;8.052;2023-09-07T09:50:47;11.70;;;3.80;;
40959;SDS011;27842;52.272;8.052;2023-09-07T09:53:14;20.92;;;4.60;;
40959;SDS011;27842;52.272;8.052;2023-09-07T09:55:46;11.55;;;4.28;;
40959;SDS011;27842;52.272;8.052;2023-09-07T09:58:17;10.65;;;4.05;;
40959;SDS011;27842;52.272;8.052;2023-09-07T10:00:47;14.32;;;4.50;;
40959;SDS011;27842;52.272;8.052;2023-09-07T10:03:17;13.10;;;4.15;;
40959;SDS011;27842;52.272;8.052;2023-09-07T10:05:52;12.18;;;3.85;;
40959;SDS011;27842;52.272;8.052;2023-09-07T10:08:19;12.95;;;4.57;;
40959;SDS011;27842;52.272;8.052;2023-09-07T10:10:48;11.00;;;4.07;;
40959;SDS011;27842;52.272;8.052;2023-09-07T10:13:32;13.85;;;4.20;;
40959;SDS011;27842;52.272;8.052;2023-09-07T10:16:01;12.68;;;3.70;;
40959;SDS011;27842;52.272;8.052;2023-09-07T10:18:41;12.80;;;4.28;;
40959;SDS011;27842;52.272;8.052;2023-09-07T10:21:09;10.85;;;4.07;;
40959;SDS011;27842;52.272;8.052;2023-09-07T10:23:39;14.07;;;4.15;;
40959;SDS011;27842;52.272;8.052;2023-09-07T10:26:14;10.60;;;4.05;;
40959;SDS011;27842;52.272;8.052;2023-09-07T10:28:43;10.77;;;3.75;;
40959;SDS011;27842;52.272;8.052;2023-09-07T10:31:13;10.02;;;3.85;;
40959;SDS011;27842;52.272;8.052;2023-09-07T10:33:47;11.57;;;4.07;;
40959;SDS011;27842;52.272;8.052;2023-09-07T10:36:24;13.45;;;4.43;;
40959;SDS011;27842;52.272;8.052;2023-09-07T10:38:53;15.13;;;4.03;;
40959;SDS011;27842;52.272;8.052;2023-09-07T10:41:23;14.85;;;4.20;;
40959;SDS011;27842;52.272;8.052;2023-09-07T10:43:55;10.85;;;4.03;;
40959;SDS011;27842;52.272;8.052;2023-09-07T10:46:22;13.93;;;4.45;;
40959;SDS011;27842;52.272;8.052;2023-09-07T10:48:49;13.38;;;3.83;;
40959;SDS011;27842;52.272;8.052;2023-09-07T10:51:19;34.65;;;5.10;;
40959;SDS011;27842;52.272;8.052;2023-09-07T10:53:45;15.57;;;4.30;;
40959;SDS011;27842;52.272;8.052;2023-09-07T10:56:20;9.50;;;3.88;;
40959;SDS011;27842;52.272;8.052;2023-09-07T10:58:53;13.00;;;3.88;;
40959;SDS011;27842;52.272;8.052;2023-09-07T11:01:19;12.07;;;3.90;;
40959;SDS011;27842;52.272;8.052;2023-09-07T11:03:46;8.88;;;3.80;;
40959;SDS011;27842;52.272;8.052;2023-09-07T11:06:21;10.43;;;3.70;;
40959;SDS011;27842;52.272;8.052;2023-09-07T11:08:48;18.10;;;4.60;;
40959;SDS011;27842;52.272;8.052;2023-09-07T11:11:14;11.50;;;3.95;;
40959;SDS011;27842;52.272;8.052;2023-09-07T11:13:40;10.77;;;4.00;;
40959;SDS011;27842;52.272;8.052;2023-09-07T11:16:14;18.90;;;4.00;;
40959;SDS011;27842;52.272;8.052;2023-09-07T11:18:42;14.95;;;3.88;;
40959;SDS011;27842;52.272;8.052;2023-09-07T11:21:07;10.82;;;4.15;;
40959;SDS011;27842;52.272;8.052;2023-09-07T11:23:35;22.83;;;4.47;;
40959;SDS011;27842;52.272;8.052;2023-09-07T11:26:04;9.60;;;3.85;;
40959;SDS011;27842;52.272;8.052;2023-09-07T11:28:30;11.73;;;3.90;;
40959;SDS011;27842;52.272;8.052;2023-09-07T11:30:57;9.93;;;3.20;;
40959;SDS011;27842;52.272;8.052;2023-09-07T11:33:24;13.15;;;3.90;;
40959;SDS011;27842;52.272;8.052;2023-09-07T11:35:50;13.15;;;3.80;;
40959;SDS011;27842;52.272;8.052;2023-09-07T11:38:17;13.00;;;3.88;;
40959;SDS011;27842;52.272;8.052;2023-09-07T11:40:44;9.18;;;3.50;;
40959;SDS011;27842;52.272;8.052;2023-09-07T11:43:13;9.85;;;3.53;;
40959;SDS011;27842;52.272;8.052;2023-09-07T11:45:40;9.88;;;3.83;;
40959;SDS011;27842;52.272;8.052;2023-09-07T11:48:07;19.42;;;4.45;;
40959;SDS011;27842;52.272;8.052;2023-09-07T11:50:35;16.35;;;4.20;;
40959;SDS011;27842;52.272;8.052;2023-09-07T11:53:02;17.85;;;3.63;;
40959;SDS011;27842;52.272;8.052;2023-09-07T11:55:29;16.77;;;3.88;;
40959;SDS011;27842;52.272;8.052;2023-09-07T11:57:54;27.20;;;4.40;;
40959;SDS011;27842;52.272;8.052;2023-09-07T12:00:20;22.17;;;4.10;;
40959;SDS011;27842;52.272;8.052;2023-09-07T12:02:47;15.13;;;3.72;;
40959;SDS011;27842;52.272;8.052;2023-09-07T12:05:13;15.55;;;4.10;;
40959;SDS011;27842;52.272;8.052;2023-09-07T12:07:40;11.27;;;3.50;;
40959;SDS011;27842;52.272;8.052;2023-09-07T12:10:08;15.52;;;3.60;;
40959;SDS011;27842;52.272;8.052;2023-09-07T12:12:38;15.82;;;3.42;;
40959;SDS011;27842;52.272;8.052;2023-09-07T12:15:07;11.95;;;3.65;;
40959;SDS011;27842;52.272;8.052;2023-09-07T12:17:34;26.17;;;4.15;;
40959;SDS011;27842;52.272;8.052;2023-09-07T12:19:59;38.42;;;5.85;;
40959;SDS011;27842;52.272;8.052;2023-09-07T12:22:26;20.42;;;4.43;;
40959;SDS011;27842;52.272;8.052;2023-09-07T12:24:52;24.55;;;3.80;;
40959;SDS011;27842;52.272;8.052;2023-09-07T12:27:20;14.68;;;3.75;;
40959;SDS011;27842;52.272;8.052;2023-09-07T12:29:46;12.00;;;3.45;;
40959;SDS011;27842;52.272;8.052;2023-09-07T12:32:12;10.70;;;3.33;;
40959;SDS011;27842;52.272;8.052;2023-09-07T12:34:37;12.50;;;3.42;;
40959;SDS011;27842;52.272;8.052;2023-09-07T12:37:04;12.90;;;3.90;;
40959;SDS011;27842;52.272;8.052;2023-09-07T12:39:30;8.85;;;3.13;;
40959;SDS011;27842;52.272;8.052;2023-09-07T12:41:56;11.32;;;3.65;;
40959;SDS011;27842;52.272;8.052;2023-09-07T12:44:22;10.50;;;3.15;;
40959;SDS011;27842;52.272;8.052;2023-09-07T12:46:47;8.88;;;3.80;;
40959;SDS011;27842;52.272;8.052;2023-09-07T12:49:13;10.13;;;3.90;;
40959;SDS011;27842;52.272;8.052;2023-09-07T12:51:40;9.07;;;3.22;;
40959;SDS011;27842;52.272;8.052;2023-09-07T12:54:10;16.50;;;3.40;;
40959;SDS011;27842;52.272;8.052;2023-09-07T12:56:36;7.47;;;3.50;;
40959;SDS011;27842;52.272;8.052;2023-09-07T12:59:01;11.20;;;3.40;;
40959;SDS011;27842;52.272;8.052;2023-09-07T13:01:28;9.75;;;3.00;;
40959;SDS011;27842;52.272;8.052;2023-09-07T13:03:56;13.73;;;3.45;;
40959;SDS011;27842;52.272;8.052;2023-09-07T13:06:21;10.18;;;3.30;;
40959;SDS011;27842;52.272;8.052;2023-09-07T13:08:47;19.10;;;3.90;;
40959;SDS011;27842;52.272;8.052;2023-09-07T13:11:13;11.88;;;3.42;;
40959;SDS011;27842;52.272;8.052;2023-09-07T13:13:38;16.02;;;3.67;;
40959;SDS011;27842;52.272;8.052;2023-09-07T13:16:04;7.07;;;2.95;;
40959;SDS011;27842;52.272;8.052;2023-09-07T13:18:30;13.57;;;3.25;;
40959;SDS011;27842;52.272;8.052;2023-09-07T13:20:56;10.73;;;3.33;;
40959;SDS011;27842;52.272;8.052;2023-09-07T13:23:29;17.38;;;3.67;;
40959;SDS011;27842;52.272;8.052;2023-09-07T13:25:56;8.45;;;3.60;;
40959;SDS011;27842;52.272;8.052;2023-09-07T13:28:22;9.65;;;3.47;;
40959;SDS011;27842;52.272;8.052;2023-09-07T13:30:48;8.25;;;3.10;;
40959;SDS011;27842;52.272;8.052;2023-09-07T13:33:15;11.82;;;3.67;;
40959;SDS011;27842;52.272;8.052;2023-09-07T13:35:40;13.55;;;3.30;;
40959;SDS011;27842;52.272;8.052;2023-09-07T13:38:06;13.20;;;3.10;;
40959;SDS011;27842;52.272;8.052;2023-09-07T13:40:32;8.65;;;3.22;;
40959;SDS011;27842;52.272;8.052;2023-09-07T13:42:57;19.23;;;3.65;;
40959;SDS011;27842;52.272;8.052;2023-09-07T13:45:23;10.52;;;3.47;;
40959;SDS011;27842;52.272;8.052;2023-09-07T13:47:49;8.20;;;3.50;;
40959;SDS011;27842;52.272;8.052;2023-09-07T13:50:15;15.85;;;3.17;;
40959;SDS011;27842;52.272;8.052;2023-09-07T13:52:41;11.32;;;3.53;;
40959;SDS011;27842;52.272;8.052;2023-09-07T13:55:06;10.93;;;3.30;;
40959;SDS011;27842;52.272;8.052;2023-09-07T13:57:33;10.35;;;3.20;;
40959;SDS011;27842;52.272;8.052;2023-09-07T13:59:59;9.00;;;3.15;;
40959;SDS011;27842;52.272;8.052;2023-09-07T14:02:25;7.40;;;3.10;;
40959;SDS011;27842;52.272;8.052;2023-09-07T14:04:51;11.65;;;2.90;;
40959;SDS011;27842;52.272;8.052;2023-09-07T14:07:17;10.25;;;3.40;;
40959;SDS011;27842;52.272;8.052;2023-09-07T14:09:43;9.55;;;3.25;;
40959;SDS011;27842;52.272;8.052;2023-09-07T14:12:09;9.68;;;3.13;;
40959;SDS011;27842;52.272;8.052;2023-09-07T14:14:34;10.30;;;2.70;;
40959;SDS011;27842;52.272;8.052;2023-09-07T14:17:01;7.85;;;3.22;;
40959;SDS011;27842;52.272;8.052;2023-09-07T14:19:27;13.05;;;3.00;;
40959;SDS011;27842;52.272;8.052;2023-09-07T14:21:56;7.70;;;3.00;;
40959;SDS011;27842;52.272;8.052;2023-09-07T14:24:25;10.75;;;3.30;;
40959;SDS011;27842;52.272;8.052;2023-09-07T14:26:51;15.30;;;3.28;;
40959;SDS011;27842;52.272;8.052;2023-09-07T14:29:17;10.55;;;3.10;;
40959;SDS011;27842;52.272;8.052;2023-09-07T14:31:43;8.32;;;3.28;;
40959;SDS011;27842;52.272;8.052;2023-09-07T14:34:09;8.13;;;3.00;;
40959;SDS011;27842;52.272;8.052;2023-09-07T14:36:37;9.75;;;3.20;;